Time;durP1;ratioP1;P1;durP2;ratioP2;P2;SDS_P1;SDS_P2;PMS_P1;PMS_P2;Temp;Humidity;BMP_temperature;BMP_pressure;BME280_temperature;BME280_humidity;BME280_pressure;Samples;Min_cycle;Max_cycle;Signal;HPM_P1;HPM_P2
2022/10/22 00:01:54;;;;;;;;;;;;;;;5.39;77.00;97703.03;107694;1264;59690;-78
2022/10/22 00:04:24;;;;;;;;;;;;;;;5.40;77.34;97712.34;107749;1260;59680;-78
2022/10/22 00:06:55;;;;;;;;;;;;;;;5.39;78.05;97717.70;107847;1268;70649;-77
2022/10/22 00:09:24;;;;;;;;;;;;;;;5.40;76.37;97713.54;107637;1268;68670;-77
2022/10/22 00:11:54;;;;;;;;;;;;;;;5.42;75.17;97710.52;107705;1264;68529;-77
2022/10/22 00:14:25;;;;;;;;;;;;;;;5.45;74.03;97709.16;107726;1264;59784;-77
2022/10/22 00:16:55;;;;;;;;;;;;;;;5.48;73.27;97706.76;107673;1266;59655;-78
2022/10/22 00:19:26;;;;;;;;;;;;;;;5.52;72.55;97712.63;107809;1265;70672;-77
2022/10/22 00:21:57;;;;;;;;;;;;;;;5.52;72.41;97708.98;107830;1265;69403;-79
2022/10/22 00:24:25;;;;;;;;;;;;;;;5.53;73.17;97709.60;107725;1259;69140;-77
2022/10/22 00:26:54;;;;;;;;;;;;;;;5.53;73.25;97711.69;107626;1268;59837;-77
2022/10/22 00:29:24;;;;;;;;;;;;;;;5.52;74.63;97705.02;107686;1269;59787;-78
2022/10/22 00:31:53;;;;;;;;;;;;;;;5.51;73.81;97702.29;107791;1270;69907;-77
2022/10/22 00:34:23;;;;;;;;;;;;;;;5.53;72.35;97698.55;107767;1264;67640;-77
2022/10/22 00:36:52;;;;;;;;;;;;;;;5.57;71.53;97694.20;107662;1268;69272;-78
2022/10/22 00:39:23;;;;;;;;;;;;;;;5.63;70.70;97696.00;107734;1269;59706;-78
2022/10/22 00:41:52;;;;;;;;;;;;;;;5.70;70.45;97690.66;107702;1260;59722;-77
2022/10/22 00:44:41;;;;;;;;;;;;;;;5.77;69.89;97693.45;107706;1271;70593;-78
2022/10/22 00:47:12;;;;;;;;;;;;;;;5.83;69.59;97688.96;107702;1268;68375;-78
2022/10/22 00:49:42;;;;;;;;;;;;;;;5.90;68.86;97689.16;107769;1270;68591;-77
2022/10/22 00:52:13;;;;;;;;;;;;;;;5.97;68.50;97681.04;107621;1268;59768;-77
2022/10/22 00:54:44;;;;;;;;;;;;;;;6.03;68.50;97678.31;107816;1267;59664;-77
2022/10/22 00:57:14;;;;;;;;;;;;;;;6.10;68.03;97675.55;107595;1267;71256;-77
2022/10/22 00:59:45;;;;;;;;;;;;;;;6.18;67.61;97678.42;107663;1272;68307;-78
2022/10/22 01:02:15;;;;;;;;;;;;;;;6.26;67.16;97681.64;107628;1268;69173;-78
2022/10/22 01:04:44;;;;;;;;;;;;;;;6.33;66.95;97674.70;107682;1270;59725;-78
2022/10/22 01:07:19;;;;;;;;;;;;;;;6.40;66.10;97676.08;107677;1264;59726;-78
2022/10/22 01:10:01;;;;;;;;;;;;;;;6.49;66.18;97681.35;107673;1268;71381;-78
2022/10/22 01:12:31;;;;;;;;;;;;;;;6.57;66.14;97684.01;107652;1269;69253;-78
2022/10/22 01:15:10;;;;;;;;;;;;;;;6.63;68.24;97682.99;107789;1266;69260;-78
2022/10/22 01:17:59;;;;;;;;;;;;;;;6.69;68.74;97674.93;107644;1268;59740;-78
2022/10/22 01:20:47;;;;;;;;;;;;;;;6.74;66.45;97670.16;107782;1268;59680;-78
2022/10/22 01:23:22;;;;;;;;;;;;;;;6.80;65.61;97670.70;107676;1269;70765;-78
2022/10/22 01:26:03;;;;;;;;;;;;;;;6.87;65.18;97675.70;107627;1268;69727;-79
2022/10/22 01:28:45;;;;;;;;;;;;;;;6.92;65.57;97673.49;107783;1269;69253;-79
2022/10/22 01:31:17;;;;;;;;;;;;;;;6.96;68.06;97672.77;107661;1270;59783;-79
2022/10/22 01:33:48;;;;;;;;;;;;;;;6.99;68.14;97663.45;107642;1268;59661;-79
2022/10/22 01:36:18;;;;;;;;;;;;;;;7.02;66.02;97662.25;107763;1266;71344;-78
2022/10/22 01:39:05;;;;;;;;;;;;;;;7.05;65.87;97657.56;107729;1268;69571;-78
2022/10/22 01:41:35;;;;;;;;;;;;;;;7.07;64.88;97655.70;107734;1269;70272;-78
2022/10/22 01:44:21;;;;;;;;;;;;;;;7.09;65.48;97659.74;107759;1271;60055;-78
2022/10/22 01:46:54;;;;;;;;;;;;;;;7.11;64.45;97653.23;107740;1270;59709;-79
2022/10/22 01:49:28;;;;;;;;;;;;;;;7.13;64.73;97649.13;107662;1269;71332;-77
2022/10/22 01:52:01;;;;;;;;;;;;;;;7.13;64.92;97646.38;107631;1266;68891;-78
2022/10/22 01:54:33;;;;;;;;;;;;;;;7.12;65.26;97647.11;107718;1264;68393;-78
2022/10/22 01:57:11;;;;;;;;;;;;;;;7.13;66.92;97650.73;107721;1269;59758;-77
2022/10/22 01:59:57;;;;;;;;;;;;;;;7.12;67.60;97646.59;107740;1269;59767;-77
2022/10/22 02:02:40;;;;;;;;;;;;;;;7.11;66.58;97649.58;107780;1270;70690;-77
2022/10/22 02:05:19;;;;;;;;;;;;;;;7.10;69.34;97645.50;107642;1270;69183;-77
2022/10/22 02:07:55;;;;;;;;;;;;;;;7.11;71.06;97636.94;107645;1269;68513;-77
2022/10/22 02:10:26;;;;;;;;;;;;;;;7.12;68.47;97633.07;107777;1270;59749;-77
2022/10/22 02:12:58;;;;;;;;;;;;;;;7.14;70.34;97637.46;107865;1269;59687;-77
2022/10/22 02:15:28;;;;;;;;;;;;;;;7.12;71.03;97638.80;107760;1260;70581;-77
2022/10/22 02:17:59;;;;;;;;;;;;;;;7.09;71.17;97644.54;107655;1265;69048;-77
2022/10/22 02:20:31;;;;;;;;;;;;;;;7.08;70.33;97645.60;107766;1267;67445;-77
2022/10/22 02:23:01;;;;;;;;;;;;;;;7.10;70.55;97643.10;107784;1270;60234;-77
2022/10/22 02:25:31;;;;;;;;;;;;;;;7.11;69.41;97645.77;107762;1268;59781;-77
2022/10/22 02:28:02;;;;;;;;;;;;;;;7.14;70.04;97644.93;107657;1269;71275;-77
2022/10/22 02:30:32;;;;;;;;;;;;;;;7.16;69.74;97640.31;107720;1266;69112;-78
2022/10/22 02:33:07;;;;;;;;;;;;;;;7.20;67.50;97643.23;107693;1266;68298;-77
2022/10/22 02:35:40;;;;;;;;;;;;;;;7.24;66.34;97643.89;107719;1271;60160;-77
2022/10/22 02:38:10;;;;;;;;;;;;;;;7.28;65.58;97643.84;107834;1266;59639;-77
2022/10/22 02:40:40;;;;;;;;;;;;;;;7.32;64.87;97648.08;107704;1270;71406;-77
2022/10/22 02:43:11;;;;;;;;;;;;;;;7.37;64.51;97640.20;107657;1268;68198;-77
2022/10/22 02:45:41;;;;;;;;;;;;;;;7.40;64.23;97638.44;107678;1266;69132;-77
2022/10/22 02:48:11;;;;;;;;;;;;;;;7.44;64.22;97629.55;107782;1271;59715;-77
2022/10/22 02:50:40;;;;;;;;;;;;;;;7.48;63.55;97628.80;107658;1272;59779;-76
2022/10/22 02:53:09;;;;;;;;;;;;;;;7.52;63.54;97623.56;107649;1266;71385;-76
2022/10/22 02:55:38;;;;;;;;;;;;;;;7.55;63.11;97619.19;107686;1269;67708;-77
2022/10/22 02:58:08;;;;;;;;;;;;;;;7.57;63.00;97621.33;107774;1268;68407;-77
2022/10/22 03:00:39;;;;;;;;;;;;;;;7.59;63.65;97615.67;107652;1268;59763;-77
2022/10/22 03:03:08;;;;;;;;;;;;;;;7.60;63.15;97611.83;107614;1269;59725;-74
2022/10/22 03:05:38;;;;;;;;;;;;;;;7.60;63.85;97612.14;107663;1267;71504;-77
2022/10/22 03:08:08;;;;;;;;;;;;;;;7.62;64.31;97614.14;107672;1265;68485;-77
2022/10/22 03:10:38;;;;;;;;;;;;;;;7.62;63.93;97616.19;107634;1269;69185;-77
2022/10/22 03:13:08;;;;;;;;;;;;;;;7.63;65.32;97614.26;107890;1261;59747;-77
2022/10/22 03:15:37;;;;;;;;;;;;;;;7.64;65.25;97616.80;107793;1266;59706;-76
2022/10/22 03:18:07;;;;;;;;;;;;;;;7.64;64.32;97610.69;107766;1266;71415;-76
2022/10/22 03:20:37;;;;;;;;;;;;;;;7.67;63.33;97605.53;107657;1268;68251;-77
2022/10/22 03:23:08;;;;;;;;;;;;;;;7.69;63.18;97606.28;107658;1270;69099;-76
2022/10/22 03:25:39;;;;;;;;;;;;;;;7.71;63.31;97599.25;107783;1269;59761;-76
2022/10/22 03:28:10;;;;;;;;;;;;;;;7.71;63.82;97590.73;107769;1269;59755;-76
2022/10/22 03:30:38;;;;;;;;;;;;;;;7.71;66.47;97595.44;107631;1268;71358;-76
2022/10/22 03:33:09;;;;;;;;;;;;;;;7.69;67.18;97592.39;107799;1269;69013;-76
2022/10/22 03:35:42;;;;;;;;;;;;;;;7.66;70.17;97592.40;107734;1270;69309;-77
2022/10/22 03:38:12;;;;;;;;;;;;;;;7.63;66.57;97588.21;107622;1269;59771;-76
2022/10/22 03:40:43;;;;;;;;;;;;;;;7.62;63.45;97584.30;107710;1269;59727;-76
2022/10/22 03:43:12;;;;;;;;;;;;;;;7.63;63.09;97585.13;107781;1268;71411;-76
2022/10/22 03:45:41;;;;;;;;;;;;;;;7.62;66.63;97589.15;107748;1270;69977;-76
2022/10/22 03:48:09;;;;;;;;;;;;;;;7.57;70.04;97590.81;107624;1269;69882;-76
2022/10/22 03:50:39;;;;;;;;;;;;;;;7.51;72.47;97589.96;107783;1271;59793;-76
2022/10/22 03:53:09;;;;;;;;;;;;;;;7.45;74.00;97595.02;107784;1268;59690;-76
2022/10/22 03:55:39;;;;;;;;;;;;;;;7.38;73.00;97594.15;107751;1270;72046;-76
2022/10/22 03:58:09;;;;;;;;;;;;;;;7.32;70.56;97589.67;107666;1266;68441;-76
2022/10/22 04:00:39;;;;;;;;;;;;;;;7.26;69.27;97584.46;107782;1270;68562;-77
2022/10/22 04:03:07;;;;;;;;;;;;;;;7.19;68.87;97581.75;107754;1269;59842;-77
2022/10/22 04:05:36;;;;;;;;;;;;;;;7.14;69.27;97580.10;107755;1269;59660;-75
2022/10/22 04:08:05;;;;;;;;;;;;;;;7.10;69.80;97577.89;107635;1269;70435;-76
2022/10/22 04:10:34;;;;;;;;;;;;;;;7.09;71.02;97579.68;107644;1266;69761;-76
2022/10/22 04:13:03;;;;;;;;;;;;;;;7.10;71.15;97588.98;107644;1268;69144;-76
2022/10/22 04:15:32;;;;;;;;;;;;;;;7.11;72.49;97584.23;107631;1271;59674;-77
2022/10/22 04:18:01;;;;;;;;;;;;;;;7.12;69.19;97581.07;107667;1268;59778;-76
2022/10/22 04:20:30;;;;;;;;;;;;;;;7.15;67.36;97574.81;107779;1269;71062;-76
2022/10/22 04:22:59;;;;;;;;;;;;;;;7.17;67.25;97572.18;107675;1269;69096;-76
2022/10/22 04:25:28;;;;;;;;;;;;;;;7.16;67.21;97569.77;107749;1268;69173;-75
2022/10/22 04:27:57;;;;;;;;;;;;;;;7.15;68.10;97568.80;107600;1268;59783;-75
2022/10/22 04:30:27;;;;;;;;;;;;;;;7.18;70.73;97564.52;107639;1268;59704;-75
2022/10/22 04:32:56;;;;;;;;;;;;;;;7.20;70.49;97558.83;107745;1269;71421;-75
2022/10/22 04:35:24;;;;;;;;;;;;;;;7.23;75.15;97560.91;107642;1268;69239;-76
2022/10/22 04:37:54;;;;;;;;;;;;;;;7.24;75.85;97566.92;107666;1268;68394;-75
2022/10/22 04:40:23;;;;;;;;;;;;;;;7.24;76.41;97571.56;107655;1268;59814;-75
2022/10/22 04:42:51;;;;;;;;;;;;;;;7.25;75.76;97569.27;107753;1269;59750;-76
2022/10/22 04:45:20;;;;;;;;;;;;;;;7.25;74.64;97569.64;107755;1269;71389;-76
2022/10/22 04:47:49;;;;;;;;;;;;;;;7.25;73.60;97573.93;107746;1266;68487;-76
2022/10/22 04:50:18;;;;;;;;;;;;;;;7.27;72.60;97569.16;107620;1269;69145;-76
2022/10/22 04:52:47;;;;;;;;;;;;;;;7.30;72.51;97571.76;107772;1265;59744;-76
2022/10/22 04:55:15;;;;;;;;;;;;;;;7.34;71.91;97578.11;107771;1273;59766;-76
2022/10/22 04:57:44;;;;;;;;;;;;;;;7.37;70.13;97578.10;107609;1270;70622;-76
2022/10/22 05:00:15;;;;;;;;;;;;;;;7.41;69.84;97585.86;107620;1268;69236;-75
2022/10/22 05:02:47;;;;;;;;;;;;;;;7.32;69.73;97580.66;107778;1266;69318;-74
2022/10/22 05:05:16;;;;;;;;;;;;;;;7.25;69.32;97585.73;107736;1270;59706;-75
2022/10/22 05:07:44;;;;;;;;;;;;;;;7.15;69.80;97588.21;107644;1269;59713;-75
2022/10/22 05:10:13;;;;;;;;;;;;;;;7.09;69.50;97586.98;107794;1270;70597;-73
2022/10/22 05:12:42;;;;;;;;;;;;;;;7.05;69.13;97587.88;107596;1270;68640;-75
2022/10/22 05:15:10;;;;;;;;;;;;;;;7.04;68.89;97587.27;107801;1268;70256;-75
2022/10/22 05:17:39;;;;;;;;;;;;;;;7.03;69.39;97589.20;107623;1265;59723;-74
2022/10/22 05:20:08;;;;;;;;;;;;;;;7.02;69.41;97589.78;107653;1273;59711;-75
2022/10/22 05:22:36;;;;;;;;;;;;;;;7.05;70.31;97585.11;107645;1269;70579;-75
2022/10/22 05:25:05;;;;;;;;;;;;;;;7.10;71.61;97582.41;107618;1270;69867;-74
2022/10/22 05:27:34;;;;;;;;;;;;;;;7.15;69.58;97577.97;107647;1268;68427;-74
2022/10/22 05:30:02;;;;;;;;;;;;;;;7.21;68.48;97575.56;107606;1267;60142;-76
2022/10/22 05:32:31;;;;;;;;;;;;;;;7.28;68.78;97583.86;107792;1269;59737;-75
2022/10/22 05:34:59;;;;;;;;;;;;;;;7.34;69.62;97586.45;107734;1269;71398;-75
2022/10/22 05:37:27;;;;;;;;;;;;;;;7.37;71.38;97589.93;107640;1270;68719;-75
2022/10/22 05:39:56;;;;;;;;;;;;;;;7.37;72.09;97592.83;107630;1270;69511;-76
2022/10/22 05:42:44;;;;;;;;;;;;;;;7.41;71.84;97588.63;107743;1270;59794;-76
2022/10/22 05:45:13;;;;;;;;;;;;;;;7.47;70.85;97593.30;107755;1269;59713;-76
2022/10/22 05:47:41;;;;;;;;;;;;;;;7.53;72.20;97593.50;107755;1269;70873;-78
2022/10/22 05:50:10;;;;;;;;;;;;;;;7.58;72.06;97591.65;107635;1269;68528;-78
2022/10/22 05:52:38;;;;;;;;;;;;;;;7.64;71.72;97592.70;107756;1268;69605;-72
2022/10/22 05:55:07;;;;;;;;;;;;;;;7.71;71.54;97594.02;107639;1269;60045;-66
2022/10/22 05:57:35;;;;;;;;;;;;;;;7.81;71.32;97597.27;107658;1269;59757;-65
2022/10/22 06:00:04;;;;;;;;;;;;;;;7.92;70.88;97595.91;107648;1270;70069;-65
2022/10/22 06:02:32;;;;;;;;;;;;;;;8.02;70.93;97593.21;107671;1264;70161;-65
2022/10/22 06:05:01;;;;;;;;;;;;;;;8.13;69.29;97586.67;107600;1270;68740;-66
2022/10/22 06:07:29;;;;;;;;;;;;;;;8.25;68.31;97590.95;107615;1269;59703;-65
2022/10/22 06:09:58;;;;;;;;;;;;;;;8.38;68.88;97590.59;107645;1269;59690;-65
2022/10/22 06:12:26;;;;;;;;;;;;;;;8.53;70.41;97594.51;107670;1270;71548;-66
2022/10/22 06:14:55;;;;;;;;;;;;;;;8.71;71.33;97594.65;107625;1269;69235;-66
2022/10/22 06:17:24;;;;;;;;;;;;;;;8.93;70.05;97599.50;107626;1264;70014;-66
2022/10/22 06:19:53;;;;;;;;;;;;;;;9.28;67.95;97599.67;107640;1270;59706;-65
2022/10/22 06:22:21;;;;;;;;;;;;;;;9.74;66.78;97602.90;107635;1269;59721;-66
2022/10/22 06:24:50;;;;;;;;;;;;;;;10.23;66.13;97607.33;107652;1265;71154;-66
2022/10/22 06:27:19;;;;;;;;;;;;;;;10.65;65.00;97612.27;107628;1266;68744;-66
2022/10/22 06:29:47;;;;;;;;;;;;;;;11.05;63.26;97613.64;107598;1271;68863;-66
2022/10/22 06:32:16;;;;;;;;;;;;;;;11.53;61.86;97611.86;107653;1266;59755;-66
2022/10/22 06:34:45;;;;;;;;;;;;;;;12.08;60.32;97609.38;107627;1269;59729;-66
2022/10/22 06:37:14;;;;;;;;;;;;;;;12.61;57.76;97611.42;107663;1270;70419;-66
2022/10/22 06:39:43;;;;;;;;;;;;;;;13.04;56.08;97613.67;107680;1269;69222;-65
2022/10/22 06:42:12;;;;;;;;;;;;;;;13.17;53.47;97613.47;107679;1268;69907;-64
2022/10/22 06:44:40;;;;;;;;;;;;;;;13.33;58.62;97613.12;107623;1269;59761;-65
2022/10/22 06:47:09;;;;;;;;;;;;;;;13.60;58.88;97609.88;107610;1269;59733;-64
2022/10/22 06:49:37;;;;;;;;;;;;;;;13.91;58.63;97604.29;107670;1270;71084;-64
2022/10/22 06:52:06;;;;;;;;;;;;;;;14.19;57.56;97604.63;107661;1269;69222;-65
2022/10/22 06:54:34;;;;;;;;;;;;;;;14.54;55.07;97602.70;107616;1269;70032;-65
2022/10/22 06:57:03;;;;;;;;;;;;;;;14.80;51.53;97601.52;107571;1270;59727;-65
2022/10/22 06:59:31;;;;;;;;;;;;;;;14.88;48.40;97601.12;107652;1268;59733;-65
2022/10/22 07:02:00;;;;;;;;;;;;;;;15.00;47.69;97604.87;107629;1266;71763;-66
2022/10/22 07:04:28;;;;;;;;;;;;;;;15.02;47.03;97599.94;107629;1270;69621;-66
2022/10/22 07:06:57;;;;;;;;;;;;;;;15.24;45.42;97599.91;107611;1269;69261;-65
2022/10/22 07:09:26;;;;;;;;;;;;;;;15.27;43.89;97603.64;107648;1269;59861;-64
2022/10/22 07:11:55;;;;;;;;;;;;;;;15.70;42.54;97596.87;107685;1266;59743;-66
2022/10/22 07:14:23;;;;;;;;;;;;;;;15.95;38.68;97595.67;107625;1269;72118;-65
2022/10/22 07:16:52;;;;;;;;;;;;;;;16.47;38.12;97596.14;107615;1269;68823;-66
2022/10/22 07:19:20;;;;;;;;;;;;;;;16.54;38.75;97600.00;107660;1270;68988;-65
2022/10/22 07:21:49;;;;;;;;;;;;;;;16.71;38.55;97596.51;107610;1270;59691;-68
2022/10/22 07:24:17;;;;;;;;;;;;;;;17.05;38.16;97596.08;107636;1267;59706;-79
2022/10/22 07:26:47;;;;;;;;;;;;;;;17.79;37.64;97593.44;107484;1269;433547;-72
2022/10/22 07:29:15;;;;;;;;;;;;;;;18.10;36.94;97588.94;107756;1269;69032;-71
2022/10/22 07:31:44;;;;;;;;;;;;;;;18.53;36.15;97590.40;107732;1269;69112;-72
2022/10/22 07:34:12;;;;;;;;;;;;;;;18.67;35.05;97591.71;107733;1270;60162;-70
2022/10/22 07:36:41;;;;;;;;;;;;;;;18.96;33.89;97591.23;107746;1266;59743;-77
2022/10/22 07:39:09;;;;;;;;;;;;;;;19.45;34.42;97589.73;107782;1269;71414;-73
2022/10/22 07:41:37;;;;;;;;;;;;;;;20.25;34.64;97585.95;107786;1269;69368;-72
2022/10/22 07:44:06;;;;;;;;;;;;;;;20.07;31.37;97594.29;107744;1269;68330;-72
2022/10/22 07:46:34;;;;;;;;;;;;;;;20.15;31.33;97594.63;107742;1270;59780;-72
2022/10/22 07:49:03;;;;;;;;;;;;;;;19.56;31.58;97598.13;107766;1268;60060;-72
2022/10/22 07:51:31;;;;;;;;;;;;;;;19.58;31.76;97600.06;107748;1266;72115;-72
2022/10/22 07:54:00;;;;;;;;;;;;;;;20.05;31.41;97596.21;107761;1266;69737;-71
2022/10/22 07:56:28;;;;;;;;;;;;;;;20.23;31.43;97593.77;107745;1270;68422;-72
2022/10/22 07:58:56;;;;;;;;;;;;;;;20.43;30.61;97593.40;107762;1268;59777;-72
2022/10/22 08:01:25;;;;;;;;;;;;;;;21.09;30.23;97592.54;107745;1269;59752;-70
2022/10/22 08:03:53;;;;;;;;;;;;;;;20.86;29.90;97586.69;107669;1270;71371;-64
2022/10/22 08:06:21;;;;;;;;;;;;;;;20.81;30.35;97588.83;107627;1268;68365;-64
2022/10/22 08:08:50;;;;;;;;;;;;;;;20.69;30.05;97587.27;107649;1268;69924;-65
2022/10/22 08:11:19;;;;;;;;;;;;;;;20.63;30.00;97581.09;107644;1266;59758;-65
2022/10/22 08:13:48;;;;;;;;;;;;;;;21.18;29.24;97585.29;107635;1266;59783;-63
2022/10/22 08:16:16;;;;;;;;;;;;;;;21.35;29.19;97592.59;107648;1269;71717;-64
2022/10/22 08:18:44;;;;;;;;;;;;;;;21.65;28.54;97586.86;107631;1269;68508;-65
2022/10/22 08:21:14;;;;;;;;;;;;;;;21.36;29.53;97592.71;107608;1270;70005;-65
2022/10/22 08:23:42;;;;;;;;;;;;;;;22.06;28.39;97596.98;107670;1270;59752;-65
2022/10/22 08:26:11;;;;;;;;;;;;;;;22.19;28.05;97600.30;107632;1267;59780;-65
2022/10/22 08:28:39;;;;;;;;;;;;;;;22.52;27.72;97593.59;107613;1270;71652;-67
2022/10/22 08:31:09;;;;;;;;;;;;;;;22.69;27.87;97592.29;107637;1266;69235;-66
2022/10/22 08:33:38;;;;;;;;;;;;;;;22.71;27.26;97584.67;107632;1269;69302;-66
2022/10/22 08:36:07;;;;;;;;;;;;;;;22.40;27.56;97583.75;107627;1266;59764;-67
2022/10/22 08:38:35;;;;;;;;;;;;;;;22.77;27.74;97585.67;107651;1270;59703;-66
2022/10/22 08:41:22;;;;;;;;;;;;;;;22.95;27.20;97594.61;107645;1269;71422;-67
2022/10/22 08:43:54;;;;;;;;;;;;;;;22.14;27.80;97594.85;107661;1267;69193;-65
2022/10/22 08:46:35;;;;;;;;;;;;;;;22.71;27.60;97597.30;107610;1269;69270;-67
2022/10/22 08:49:08;;;;;;;;;;;;;;;22.66;27.30;97598.95;107616;1269;59714;-66
2022/10/22 08:51:42;;;;;;;;;;;;;;;22.75;27.94;97600.20;107630;1271;59664;-65
2022/10/22 08:54:21;;;;;;;;;;;;;;;22.99;28.00;97599.41;107656;1270;71510;-66
2022/10/22 08:56:59;;;;;;;;;;;;;;;23.22;27.20;97602.74;107650;1270;68407;-67
2022/10/22 08:59:34;;;;;;;;;;;;;;;23.75;27.38;97606.44;107665;1266;69875;-67
2022/10/22 09:02:07;;;;;;;;;;;;;;;24.36;26.28;97605.81;107645;1270;59762;-67
2022/10/22 09:04:41;;;;;;;;;;;;;;;24.35;26.67;97603.70;107638;1272;59699;-67
2022/10/22 09:07:10;;;;;;;;;;;;;;;24.41;26.44;97611.43;107680;1269;72128;-66
2022/10/22 09:09:41;;;;;;;;;;;;;;;24.85;26.04;97616.36;107691;1267;69312;-66
2022/10/22 09:12:14;;;;;;;;;;;;;;;24.88;25.63;97613.48;107638;1268;70037;-68
2022/10/22 09:14:47;;;;;;;;;;;;;;;25.19;25.67;97620.22;107611;1271;59706;-67
2022/10/22 09:17:34;;;;;;;;;;;;;;;25.65;24.89;97620.02;107683;1270;59720;-67
2022/10/22 09:20:27;;;;;;;;;;;;;;;25.69;24.93;97612.69;107676;1270;71443;-66
2022/10/22 09:23:12;;;;;;;;;;;;;;;25.58;25.11;97608.37;107671;1269;68497;-66
2022/10/22 09:25:41;;;;;;;;;;;;;;;25.57;25.22;97605.40;107643;1264;70034;-68
2022/10/22 09:28:09;;;;;;;;;;;;;;;25.83;24.74;97606.59;107670;1270;60104;-65
2022/10/22 09:30:39;;;;;;;;;;;;;;;26.05;24.36;97601.15;107644;1269;59697;-68
2022/10/22 09:33:15;;;;;;;;;;;;;;;26.07;25.02;97599.25;107658;1268;72092;-68
2022/10/22 09:35:52;;;;;;;;;;;;;;;26.51;24.69;97597.53;107647;1268;70262;-67
2022/10/22 09:38:24;;;;;;;;;;;;;;;26.76;24.08;97595.85;107623;1269;68450;-67
2022/10/22 09:40:53;;;;;;;;;;;;;;;25.89;24.80;97590.69;107640;1266;59690;-66
2022/10/22 09:43:22;;;;;;;;;;;;;;;25.47;25.65;97585.98;107657;1266;59695;-67
2022/10/22 09:46:01;;;;;;;;;;;;;;;25.13;26.42;97583.49;107635;1268;70693;-68
2022/10/22 09:48:36;;;;;;;;;;;;;;;24.80;26.40;97581.12;107666;1268;68639;-67
2022/10/22 09:51:04;;;;;;;;;;;;;;;23.71;27.59;97587.27;107638;1270;69954;-67
2022/10/22 09:53:37;;;;;;;;;;;;;;;22.82;28.78;97596.34;107634;1269;59763;-66
2022/10/22 09:56:16;;;;;;;;;;;;;;;21.88;30.29;97599.63;107641;1270;59664;-66
2022/10/22 09:58:48;;;;;;;;;;;;;;;21.85;30.52;97599.98;107665;1269;71508;-67
2022/10/22 10:01:20;;;;;;;;;;;;;;;21.61;31.33;97608.42;107661;1270;68380;-67
2022/10/22 10:03:50;;;;;;;;;;;;;;;20.89;32.58;97598.50;107624;1266;69163;-67
2022/10/22 10:06:19;;;;;;;;;;;;;;;20.69;33.07;97600.71;107642;1264;59715;-67
2022/10/22 10:08:48;;;;;;;;;;;;;;;20.91;32.65;97597.25;107644;1268;59730;-66
2022/10/22 10:11:36;;;;;;;;;;;;;;;20.66;33.27;97592.95;107690;1268;72145;-68
2022/10/22 10:14:17;;;;;;;;;;;;;;;20.40;33.81;97594.75;107671;1268;68626;-67
2022/10/22 10:16:48;;;;;;;;;;;;;;;20.25;34.11;97590.03;107641;1269;69377;-68
2022/10/22 10:19:19;;;;;;;;;;;;;;;20.46;33.66;97587.55;107651;1269;59688;-67
2022/10/22 10:22:07;;;;;;;;;;;;;;;20.67;33.73;97584.20;107669;1269;59721;-67
2022/10/22 10:24:44;;;;;;;;;;;;;;;21.29;32.67;97584.97;107625;1269;70925;-67
2022/10/22 10:27:25;;;;;;;;;;;;;;;21.58;32.31;97580.71;107683;1269;68840;-65
2022/10/22 10:29:59;;;;;;;;;;;;;;;21.71;31.88;97578.93;107619;1269;69263;-67
2022/10/22 10:32:28;;;;;;;;;;;;;;;21.48;32.57;97578.19;107618;1266;59763;-66
2022/10/22 10:35:06;;;;;;;;;;;;;;;21.33;33.00;97584.45;107604;1269;59872;-67
2022/10/22 10:37:40;;;;;;;;;;;;;;;20.92;33.13;97582.77;107623;1268;71534;-67
2022/10/22 10:40:27;;;;;;;;;;;;;;;20.78;34.17;97583.33;107629;1269;69933;-68
2022/10/22 10:43:09;;;;;;;;;;;;;;;20.66;34.14;97579.31;107637;1268;69786;-66
2022/10/22 10:45:41;;;;;;;;;;;;;;;20.95;34.11;97577.64;107572;1270;59676;-68
2022/10/22 10:48:15;;;;;;;;;;;;;;;21.24;33.94;97576.31;107625;1268;59717;-67
2022/10/22 10:50:47;;;;;;;;;;;;;;;21.98;32.63;97568.28;107635;1269;71435;-67
2022/10/22 10:53:34;;;;;;;;;;;;;;;22.69;31.50;97571.48;107615;1269;69921;-68
2022/10/22 10:56:20;;;;;;;;;;;;;;;22.65;31.63;97564.67;107610;1269;69615;-68
2022/10/22 10:59:12;;;;;;;;;;;;;;;23.11;31.50;97564.31;107608;1264;59782;-68
2022/10/22 11:02:17;;;;;;;;;;;;;;;24.08;30.24;97560.36;107603;1268;59706;-67
2022/10/22 11:05:04;;;;;;;;;;;;;;;25.66;29.01;97557.13;107303;1273;71777;-69
2022/10/22 11:08:08;;;;;;;;;;;;;;;26.39;27.22;97553.95;107605;1269;69267;-69
2022/10/22 11:10:36;;;;;;;;;;;;;;;26.95;26.68;97556.76;107285;1275;70021;-69
2022/10/22 11:13:13;;;;;;;;;;;;;;;27.09;25.80;97555.48;107562;1265;59850;-69
2022/10/22 11:15:43;;;;;;;;;;;;;;;26.89;25.80;97545.08;107657;1265;59763;-67
2022/10/22 11:18:35;;;;;;;;;;;;;;;27.08;25.92;97537.90;107642;1266;72105;-69
2022/10/22 11:21:20;;;;;;;;;;;;;;;27.75;25.34;97536.51;107588;1270;68968;-67
2022/10/22 11:23:56;;;;;;;;;;;;;;;27.56;25.33;97540.71;107632;1266;69685;-68
2022/10/22 11:26:37;;;;;;;;;;;;;;;27.57;25.26;97542.73;107649;1266;59780;-69
2022/10/22 11:29:10;;;;;;;;;;;;;;;26.80;25.87;97538.98;107646;1269;59696;-68
2022/10/22 11:31:39;;;;;;;;;;;;;;;25.95;27.07;97537.40;107639;1266;71381;-68
2022/10/22 11:34:16;;;;;;;;;;;;;;;25.41;27.66;97537.77;107635;1264;69756;-68
2022/10/22 11:37:04;;;;;;;;;;;;;;;25.38;28.20;97531.30;107672;1264;69881;-69
2022/10/22 11:39:41;;;;;;;;;;;;;;;25.38;27.98;97523.67;107651;1269;59731;-67
2022/10/22 11:42:20;;;;;;;;;;;;;;;25.50;28.04;97517.97;107623;1268;59633;-68
2022/10/22 11:44:59;;;;;;;;;;;;;;;25.85;27.51;97516.24;107685;1269;72418;-68
2022/10/22 11:47:33;;;;;;;;;;;;;;;26.38;27.43;97512.92;107673;1269;69934;-69
2022/10/22 11:50:24;;;;;;;;;;;;;;;26.52;27.09;97514.70;107613;1268;68463;-68
2022/10/22 11:53:01;;;;;;;;;;;;;;;25.98;27.83;97510.89;107641;1268;59700;-67
2022/10/22 11:55:49;;;;;;;;;;;;;;;26.36;27.38;97511.45;107675;1268;59709;-69
2022/10/22 11:58:29;;;;;;;;;;;;;;;27.43;26.69;97507.92;107605;1269;71730;-69
2022/10/22 12:01:00;;;;;;;;;;;;;;;27.87;25.39;97497.06;107628;1268;70050;-69
2022/10/22 12:03:31;;;;;;;;;;;;;;;28.09;25.27;97496.41;107623;1269;70019;-69
2022/10/22 12:06:10;;;;;;;;;;;;;;;26.18;26.91;97499.51;107668;1266;59789;-69
2022/10/22 12:08:42;;;;;;;;;;;;;;;25.84;27.71;97499.56;107614;1266;59709;-69
2022/10/22 12:11:10;;;;;;;;;;;;;;;26.34;27.15;97501.89;107707;1268;71447;-68
2022/10/22 12:14:00;;;;;;;;;;;;;;;25.95;27.39;97490.77;107613;1268;69686;-68
2022/10/22 12:16:32;;;;;;;;;;;;;;;24.84;29.04;97491.29;107618;1269;69509;-68
2022/10/22 12:19:21;;;;;;;;;;;;;;;24.57;29.06;97486.17;107655;1266;59713;-68
2022/10/22 12:21:56;;;;;;;;;;;;;;;23.92;30.46;97493.65;107632;1268;59675;-68
2022/10/22 12:24:28;;;;;;;;;;;;;;;23.13;31.85;97490.77;107669;1269;71547;-68
2022/10/22 12:26:57;;;;;;;;;;;;;;;23.93;30.51;97482.02;107679;1265;69705;-69
2022/10/22 12:29:26;;;;;;;;;;;;;;;24.40;30.25;97478.43;107677;1266;69094;-67
2022/10/22 12:31:56;;;;;;;;;;;;;;;25.15;29.72;97477.89;107629;1269;59698;-68
2022/10/22 12:34:24;;;;;;;;;;;;;;;25.98;28.47;97475.64;107675;1268;59783;-67
2022/10/22 12:36:53;;;;;;;;;;;;;;;26.13;28.00;97477.80;107665;1266;72068;-69
2022/10/22 12:39:24;;;;;;;;;;;;;;;25.76;27.88;97478.46;107618;1269;68956;-69
2022/10/22 12:41:53;;;;;;;;;;;;;;;25.10;28.74;97477.15;107626;1255;70175;-68
2022/10/22 12:44:22;;;;;;;;;;;;;;;24.73;29.65;97471.92;107656;1268;59812;-68
2022/10/22 12:46:50;;;;;;;;;;;;;;;24.12;30.37;97473.68;107607;1268;59770;-68
2022/10/22 12:49:35;;;;;;;;;;;;;;;22.86;32.75;97477.91;107616;1266;72179;-69
2022/10/22 12:52:05;;;;;;;;;;;;;;;22.15;33.91;97476.52;107655;1264;69812;-67
2022/10/22 12:54:38;;;;;;;;;;;;;;;21.76;34.38;97473.83;107617;1265;68835;-67
2022/10/22 12:57:12;;;;;;;;;;;;;;;21.24;35.37;97479.39;107644;1268;59712;-67
2022/10/22 12:59:42;;;;;;;;;;;;;;;20.91;36.35;97479.96;107655;1266;59760;-67
2022/10/22 13:02:20;;;;;;;;;;;;;;;20.73;36.93;97483.73;107636;1269;70812;-67
2022/10/22 13:05:07;;;;;;;;;;;;;;;20.53;37.42;97483.72;107664;1264;69956;-67
2022/10/22 13:07:46;;;;;;;;;;;;;;;20.27;38.46;97484.13;107602;1265;69245;-67